createdAt,value
2022-12-03T00:01:38.852Z,96099.19
2022-12-03T00:04:12.986Z,96099.00
2022-12-03T00:06:45.828Z,96095.19
2022-12-03T00:09:18.628Z,96095.09
2022-12-03T00:11:51.940Z,96093.63
2022-12-03T00:14:24.705Z,96092.63
2022-12-03T00:16:57.477Z,96090.94
2022-12-03T00:19:31.690Z,96097.16
2022-12-03T00:22:04.431Z,96093.31
2022-12-03T00:24:37.188Z,96098.97
2022-12-03T00:27:09.986Z,96091.72
2022-12-03T00:29:42.814Z,96091.59
2022-12-03T00:32:15.549Z,96091.50
2022-12-03T00:34:49.775Z,96090.28
2022-12-03T00:37:22.648Z,96080.97
2022-12-03T00:39:55.421Z,96073.66
2022-12-03T00:42:28.195Z,96081.03
2022-12-03T00:45:00.981Z,96069.50
2022-12-03T00:47:33.870Z,96071.09
2022-12-03T00:50:09.617Z,96070.50
2022-12-03T00:52:42.549Z,96072.38
2022-12-03T00:55:15.380Z,96076.25
2022-12-03T00:57:48.307Z,96080.81
2022-12-03T01:00:24.549Z,96082.06
2022-12-03T01:02:57.300Z,96089.41
2022-12-03T01:05:31.549Z,96093.34
2022-12-03T01:08:04.472Z,96092.72
2022-12-03T01:10:37.350Z,96089.00
2022-12-03T01:13:10.097Z,96083.88
2022-12-03T01:15:43.031Z,96079.81
2022-12-03T01:18:15.896Z,96083.75
2022-12-03T01:20:50.120Z,96091.13
2022-12-03T01:23:22.922Z,96076.28
2022-12-03T01:25:55.733Z,96080.19
2022-12-03T01:28:29.323Z,96086.09
2022-12-03T01:31:19.543Z,96089.06
2022-12-03T01:33:52.392Z,96092.31
2022-12-03T01:36:26.745Z,96092.63
2022-12-03T01:38:59.464Z,96098.03
2022-12-03T01:41:33.155Z,96098.03
2022-12-03T01:44:15.215Z,96102.84
2022-12-03T01:46:49.019Z,96101.31
2022-12-03T01:49:25.456Z,96098.66
2022-12-03T01:52:01.089Z,96091.28
2022-12-03T01:54:39.260Z,96096.59
2022-12-03T01:57:21.177Z,96104.06
2022-12-03T01:59:55.474Z,96107.00
2022-12-03T02:02:30.531Z,96106.72
2022-12-03T02:05:08.130Z,96109.66
2022-12-03T02:07:42.408Z,96109.66
2022-12-03T02:10:17.480Z,96118.53
2022-12-03T02:12:55.055Z,96111.94
2022-12-03T02:15:28.204Z,96112.84
2022-12-03T02:18:01.655Z,96110.50
2022-12-03T02:20:40.731Z,96114.22
2022-12-03T02:23:24.099Z,96113.44
2022-12-03T02:25:58.284Z,96107.16
2022-12-03T02:28:31.084Z,96107.47
2022-12-03T02:31:05.173Z,96098.25
2022-12-03T02:33:38.130Z,96097.47
2022-12-03T02:36:12.055Z,96095.09
2022-12-03T02:38:46.160Z,96102.56
2022-12-03T02:41:39.954Z,96106.31
2022-12-03T02:44:13.333Z,96106.91
2022-12-03T02:46:46.568Z,96102.19
2022-12-03T02:49:19.415Z,96101.13
2022-12-03T02:51:52.232Z,96104.06
2022-12-03T02:54:25.424Z,96105.94
2022-12-03T02:56:59.713Z,96105.13
2022-12-03T02:59:32.602Z,96111.22
2022-12-03T03:02:05.599Z,96096.91
2022-12-03T03:04:38.911Z,96088.94
2022-12-03T03:07:11.859Z,96095.03
2022-12-03T03:09:44.981Z,96097.97
2022-12-03T03:12:19.265Z,96092.38
2022-12-03T03:14:52.284Z,96093.66
2022-12-03T03:17:25.704Z,96095.22
2022-12-03T03:19:59.078Z,96103.69
2022-12-03T03:22:34.401Z,96098.38
2022-12-03T03:25:10.827Z,96092.28
2022-12-03T03:27:46.608Z,96095.41
2022-12-03T03:30:19.409Z,96103.69
2022-12-03T03:32:52.248Z,96103.06
2022-12-03T03:35:25.703Z,96096.97
2022-12-03T03:37:59.368Z,96100.13
2022-12-03T03:40:32.505Z,96101.97
2022-12-03T03:43:08.159Z,96104.84
2022-12-03T03:45:41.046Z,96099.53
2022-12-03T03:48:14.842Z,96100.47
2022-12-03T03:50:48.454Z,96100.69
2022-12-03T03:53:27.947Z,96097.91
2022-12-03T03:56:00.682Z,96093.88
2022-12-03T03:58:35.421Z,96095.16
2022-12-03T04:01:10.088Z,96099.84
2022-12-03T04:03:43.020Z,96081.75
2022-12-03T04:06:15.856Z,96083.31
2022-12-03T04:08:48.852Z,96091.00
2022-12-03T04:11:39.393Z,96092.56
2022-12-03T04:14:13.551Z,96085.56
2022-12-03T04:16:46.396Z,96092.44
2022-12-03T04:19:19.456Z,96086.81
2022-12-03T04:22:09.779Z,96094.78
2022-12-03T04:24:43.100Z,96096.84
2022-12-03T04:27:33.523Z,96087.31
2022-12-03T04:30:09.258Z,96097.94
2022-12-03T04:32:59.362Z,96096.47
2022-12-03T04:35:44.171Z,96096.28
2022-12-03T04:38:17.518Z,96106.41
2022-12-03T04:41:04.005Z,96092.19
2022-12-03T04:43:58.630Z,96099.66
2022-12-03T04:46:32.852Z,96097.31
2022-12-03T04:49:05.961Z,96096.03
2022-12-03T04:51:38.806Z,96089.16
2022-12-03T04:54:11.635Z,96083.38
2022-12-03T04:56:44.732Z,96084.94
2022-12-03T04:59:17.548Z,96086.00
2022-12-03T05:01:51.829Z,96088.38
2022-12-03T05:04:25.072Z,96088.38
2022-12-03T05:06:57.945Z,96095.75
2022-12-03T05:09:30.825Z,96090.16
2022-12-03T05:12:03.943Z,96084.22
2022-12-03T05:14:36.783Z,96077.03
2022-12-03T05:17:10.986Z,96084.91
2022-12-03T05:20:01.144Z,96099.44
2022-12-03T05:22:34.097Z,96095.69
2022-12-03T05:25:07.941Z,96101.16
2022-12-03T05:27:40.756Z,96096.34
2022-12-03T05:30:14.173Z,96099.00
2022-12-03T05:32:48.368Z,96101.03
2022-12-03T05:35:21.494Z,96102.91
2022-12-03T05:37:54.344Z,96096.22
2022-12-03T05:40:27.198Z,96096.72
2022-12-03T05:43:01.216Z,96085.03
2022-12-03T05:45:36.327Z,96091.91
2022-12-03T05:48:12.522Z,96085.50
2022-12-03T05:50:47.172Z,96075.50
2022-12-03T05:53:21.035Z,96067.03
2022-12-03T05:55:53.807Z,96072.19
2022-12-03T05:58:26.645Z,96074.06
2022-12-03T06:00:59.406Z,96070.31
2022-12-03T06:03:33.854Z,96067.19
2022-12-03T06:06:07.181Z,96078.56
2022-12-03T06:08:40.067Z,96088.88
2022-12-03T06:11:12.838Z,96086.41
2022-12-03T06:13:45.584Z,96089.53
2022-12-03T06:16:18.356Z,96090.81
2022-12-03T06:18:52.973Z,96095.00
2022-12-03T06:21:25.792Z,96102.97
2022-12-03T06:23:58.637Z,96097.38
2022-12-03T06:26:31.509Z,96095.78
2022-12-03T06:29:04.275Z,96088.63
2022-12-03T06:31:37.600Z,96089.41
2022-12-03T06:34:11.783Z,96092.06
2022-12-03T06:36:44.650Z,96075.34
2022-12-03T06:39:18.612Z,96074.56
2022-12-03T06:41:51.493Z,96081.75
2022-12-03T06:44:24.225Z,96075.19
2022-12-03T06:46:57.069Z,96077.84
2022-12-03T06:49:31.251Z,96074.13
2022-12-03T06:52:04.037Z,96080.66
2022-12-03T06:54:36.847Z,96070.84
2022-12-03T06:57:09.619Z,96083.03
2022-12-03T06:59:42.337Z,96089.41
2022-12-03T07:02:15.071Z,96080.06
2022-12-03T07:04:49.359Z,96085.06
2022-12-03T07:07:22.248Z,96075.75
2022-12-03T07:09:55.913Z,96079.94
2022-12-03T07:12:28.740Z,96084.78
2022-12-03T07:15:01.587Z,96076.81
2022-12-03T07:17:34.423Z,96084.00
2022-12-03T07:20:10.810Z,96088.69
2022-12-03T07:22:43.583Z,96094.78
2022-12-03T07:25:21.422Z,96090.25
2022-12-03T07:27:56.078Z,96097.72
2022-12-03T07:30:29.072Z,96085.25
2022-12-03T07:33:01.948Z,96089.00
2022-12-03T07:35:36.181Z,96087.59
2022-12-03T07:38:09.141Z,96083.38
2022-12-03T07:40:41.956Z,96076.81
2022-12-03T07:43:14.749Z,96080.25
2022-12-03T07:45:47.531Z,96077.91
2022-12-03T07:48:20.329Z,96074.47
2022-12-03T07:50:54.537Z,96082.13
2022-12-03T07:53:27.355Z,96079.47
2022-12-03T07:56:00.139Z,96092.41
2022-12-03T07:58:33.035Z,96081.78
2022-12-03T08:01:07.122Z,96084.94
2022-12-03T08:03:39.964Z,96087.09
2022-12-03T08:06:14.241Z,96082.59
2022-12-03T08:08:47.020Z,96089.47
2022-12-03T08:11:20.006Z,96091.03
2022-12-03T08:13:52.754Z,96077.47
2022-12-03T08:16:25.953Z,96089.66
2022-12-03T08:18:58.734Z,96087.78
2022-12-03T08:21:37.402Z,96077.66
2022-12-03T08:24:15.915Z,96085.28
2022-12-03T08:26:50.457Z,96073.88
2022-12-03T08:29:23.205Z,96079.97
2022-12-03T08:31:57.159Z,96089.50
2022-12-03T08:34:40.227Z,96083.41
2022-12-03T08:37:17.612Z,96083.13
2022-12-03T08:39:51.696Z,96068.28
2022-12-03T08:42:45.274Z,96075.66
2022-12-03T08:45:40.561Z,96069.56
2022-12-03T08:48:34.144Z,96075.34
2022-12-03T08:51:14.224Z,96080.66
2022-12-03T08:53:54.214Z,96080.66
2022-12-03T08:56:30.839Z,96083.59
2022-12-03T08:59:22.569Z,96081.91
2022-12-03T09:01:55.689Z,96069.75
2022-12-03T09:04:32.161Z,96074.41
2022-12-03T09:07:05.301Z,96077.25
2022-12-03T09:09:39.480Z,96083.84
2022-12-03T09:12:12.278Z,96072.28
2022-12-03T09:14:45.398Z,96075.91
2022-12-03T09:17:18.140Z,96077.16
2022-12-03T09:19:50.926Z,96076.38
2022-12-03T09:22:23.906Z,96078.72
2022-12-03T09:24:58.467Z,96063.59
2022-12-03T09:27:31.374Z,96064.97
2022-12-03T09:30:04.724Z,96060.75
2022-12-03T09:32:37.443Z,96063.09
2022-12-03T09:35:10.663Z,96055.44
2022-12-03T09:37:43.512Z,96063.72
2022-12-03T09:40:18.436Z,96056.84
2022-12-03T09:42:51.795Z,96065.91
2022-12-03T09:45:24.608Z,96051.34
2022-12-03T09:47:57.549Z,96051.34
2022-12-03T09:50:31.914Z,96045.75
2022-12-03T09:53:05.011Z,96045.75
2022-12-03T09:55:39.643Z,96037.19
2022-12-03T09:58:13.985Z,96038.75
2022-12-03T10:00:49.116Z,96052.66
2022-12-03T10:03:29.764Z,96056.59
2022-12-03T10:06:02.927Z,96052.81
2022-12-03T10:08:35.739Z,96054.28
2022-12-03T10:11:09.975Z,96054.41
2022-12-03T10:13:45.669Z,96047.91
2022-12-03T10:16:21.025Z,96036.34
2022-12-03T10:18:56.764Z,96024.31
2022-12-03T10:21:35.687Z,96026.03
2022-12-03T10:24:23.288Z,96010.88
2022-12-03T10:26:59.688Z,96016.69
2022-12-03T10:29:35.066Z,96003.41
2022-12-03T10:32:10.116Z,95998.25
2022-12-03T10:34:44.857Z,95990.44
2022-12-03T10:37:19.806Z,96012.94
2022-12-03T10:39:58.128Z,96006.69
2022-12-03T10:42:35.018Z,96008.75
2022-12-03T10:45:13.419Z,95998.91
2022-12-03T10:48:04.084Z,96001.72
2022-12-03T10:50:54.345Z,95999.53
2022-12-03T10:53:31.519Z,95989.84
2022-12-03T10:56:07.084Z,95986.56
2022-12-03T10:58:41.788Z,95989.69
2022-12-03T11:01:17.883Z,95977.16
2022-12-03T11:03:51.793Z,95969.19
2022-12-03T11:06:24.792Z,95958.44
2022-12-03T11:09:00.443Z,95942.63
2022-12-03T11:11:35.541Z,95954.69
2022-12-03T11:14:12.253Z,95955.28
2022-12-03T11:17:09.961Z,95950.09
2022-12-03T11:19:53.432Z,95947.63
2022-12-03T11:22:46.284Z,95950.75
2022-12-03T11:25:47.942Z,95945.56
2022-12-03T11:28:53.663Z,95943.84
2022-12-03T11:31:40.638Z,95939.78
2022-12-03T11:34:49.023Z,95953.97
2022-12-03T11:37:26.860Z,95961.31
2022-12-03T11:40:28.292Z,95961.94
2022-12-03T11:43:01.001Z,95948.81
2022-12-03T11:45:37.761Z,95950.38
2022-12-03T11:48:15.912Z,95934.91
2022-12-03T11:50:52.686Z,95935.69
2022-12-03T11:53:27.794Z,95943.81
2022-12-03T11:56:08.850Z,95938.22
2022-12-03T11:58:45.332Z,95934.91
2022-12-03T12:01:38.230Z,95916.19
2022-12-03T12:04:32.997Z,95904.78
2022-12-03T12:07:07.081Z,95900.72
2022-12-03T12:09:55.137Z,95904.78
2022-12-03T12:12:33.363Z,95904.31
2022-12-03T12:15:51.152Z,95904.91
2022-12-03T12:18:43.788Z,95908.22
2022-12-03T12:21:43.893Z,95900.84
2022-12-03T12:24:31.224Z,95898.81
2022-12-03T12:27:07.466Z,95894.91
2022-12-03T12:29:41.758Z,95891.31
2022-12-03T12:32:16.700Z,95884.91
2022-12-03T12:34:51.040Z,95888.66
2022-12-03T12:37:33.015Z,95897.56
2022-12-03T12:40:13.832Z,95885.53
2022-12-03T12:42:52.322Z,95880.69
2022-12-03T12:45:26.891Z,95887.28
2022-12-03T12:48:06.725Z,95880.56
2022-12-03T12:50:40.655Z,95873.38
2022-12-03T12:53:24.063Z,95875.09
2022-12-03T12:55:59.850Z,95894.16
2022-12-03T12:58:34.332Z,95887.91
2022-12-03T13:01:12.672Z,95880.72
2022-12-03T13:03:45.716Z,95877.75
2022-12-03T13:06:21.271Z,95867.59
2022-12-03T13:08:58.170Z,95862.78
2022-12-03T13:11:39.558Z,95868.88
2022-12-03T13:14:17.667Z,95872.59
2022-12-03T13:16:52.261Z,95870.25
2022-12-03T13:19:26.661Z,95874.19
2022-12-03T13:22:02.432Z,95872.75
2022-12-03T13:24:39.087Z,95872.44
2022-12-03T13:27:26.790Z,95863.06
2022-12-03T13:30:02.921Z,95866.97
2022-12-03T13:32:38.414Z,95856.97
2022-12-03T13:35:27.724Z,95861.03
2022-12-03T13:38:00.623Z,95851.66
2022-12-03T13:40:35.689Z,95856.47
2022-12-03T13:43:13.663Z,95851.34
2022-12-03T13:45:48.283Z,95854.91
2022-12-03T13:48:24.864Z,95851.63
2022-12-03T13:50:58.016Z,95842.56
2022-12-03T13:53:35.006Z,95844.25
2022-12-03T13:56:26.665Z,95851.63
2022-12-03T13:59:01.396Z,95845.81
2022-12-03T14:01:34.648Z,95851.13
2022-12-03T14:04:07.629Z,95849.25
2022-12-03T14:06:40.698Z,95856.16
2022-12-03T14:09:13.460Z,95855.38
2022-12-03T14:12:07.762Z,95848.16
2022-12-03T14:14:40.546Z,95851.91
2022-12-03T14:17:13.456Z,95857.06
2022-12-03T14:19:46.602Z,95852.09
2022-12-03T14:22:23.235Z,95847.41
2022-12-03T14:24:56.091Z,95854.44
2022-12-03T14:27:30.396Z,95850.25
2022-12-03T14:30:03.549Z,95849.28
2022-12-03T14:32:36.426Z,95856.00
2022-12-03T14:35:10.311Z,95857.44
2022-12-03T14:37:43.285Z,95849.00
2022-12-03T14:40:21.151Z,95852.75
2022-12-03T14:42:56.026Z,95850.09
2022-12-03T14:45:29.994Z,95853.84
2022-12-03T14:48:02.956Z,95843.50
2022-12-03T14:50:35.748Z,95854.16
2022-12-03T14:53:08.611Z,95853.06
2022-12-03T14:55:41.361Z,95849.91
2022-12-03T14:58:15.429Z,95852.28
2022-12-03T15:00:48.182Z,95849.13
2022-12-03T15:03:21.123Z,95847.59
2022-12-03T15:05:53.845Z,95852.13
2022-12-03T15:08:26.605Z,95844.94
2022-12-03T15:10:59.383Z,95851.00
2022-12-03T15:13:33.685Z,95859.47
2022-12-03T15:16:06.921Z,95856.66
2022-12-03T15:18:39.703Z,95855.56
2022-12-03T15:21:12.577Z,95853.22
2022-12-03T15:23:45.298Z,95855.56
2022-12-03T15:26:18.191Z,95849.78
2022-12-03T15:28:52.524Z,95849.47
2022-12-03T15:31:25.324Z,95857.91
2022-12-03T15:33:58.075Z,95852.13
2022-12-03T15:36:30.788Z,95839.63
2022-12-03T15:39:03.655Z,95842.72
2022-12-03T15:41:36.583Z,95837.72
2022-12-03T15:44:10.765Z,95838.50
2022-12-03T15:46:43.780Z,95832.75
2022-12-03T15:49:16.640Z,95831.19
2022-12-03T15:51:49.403Z,95838.69
2022-12-03T15:54:22.218Z,95831.50
2022-12-03T15:56:57.494Z,95838.38
2022-12-03T15:59:31.870Z,95842.91
2022-12-03T16:02:04.825Z,95835.25
2022-12-03T16:04:37.664Z,95824.63
2022-12-03T16:07:10.443Z,95839.78
2022-12-03T16:09:43.347Z,95839.63
2022-12-03T16:12:16.071Z,95847.28
2022-12-03T16:14:50.335Z,95841.34
2022-12-03T16:17:23.149Z,95836.81
2022-12-03T16:19:56.220Z,95835.72
2022-12-03T16:22:29.210Z,95828.53
2022-12-03T16:25:03.200Z,95845.25
2022-12-03T16:27:37.932Z,95845.25
2022-12-03T16:30:13.812Z,95837.28
2022-12-03T16:32:46.629Z,95830.41
2022-12-03T16:35:19.496Z,95839.78
2022-12-03T16:37:52.522Z,95828.38
2022-12-03T16:40:25.306Z,95817.75
2022-12-03T16:42:58.139Z,95822.91
2022-12-03T16:46:01.520Z,95822.91
2022-12-03T16:48:34.400Z,95813.69
2022-12-03T16:51:07.740Z,95811.66
2022-12-03T16:53:40.563Z,95815.09
2022-12-03T16:56:13.592Z,95830.25
2022-12-03T16:58:46.496Z,95831.34
2022-12-03T17:01:20.749Z,95832.44
2022-12-03T17:03:53.528Z,95833.22
2022-12-03T17:06:26.340Z,95826.03
2022-12-03T17:08:59.172Z,95814.63
2022-12-03T17:11:32.042Z,95821.06
2022-12-03T17:14:04.867Z,95817.63
2022-12-03T17:16:39.045Z,95816.50
2022-12-03T17:19:11.980Z,95807.28
2022-12-03T17:21:44.752Z,95801.97
2022-12-03T17:24:17.554Z,95805.41
2022-12-03T17:26:50.385Z,95795.88
2022-12-03T17:29:23.366Z,95786.34
2022-12-03T17:31:57.810Z,95789.78
2022-12-03T17:34:30.656Z,95790.41
2022-12-03T17:37:03.570Z,95788.06
2022-12-03T17:39:36.365Z,95787.63
2022-12-03T17:42:09.193Z,95800.91
2022-12-03T17:44:41.982Z,95805.72
2022-12-03T17:47:45.840Z,95806.03
2022-12-03T17:50:18.714Z,95809.47
2022-12-03T17:52:51.466Z,95805.72
2022-12-03T17:55:35.945Z,95796.69
2022-12-03T17:58:11.290Z,95791.84
2022-12-03T18:00:44.333Z,95790.09
2022-12-03T18:03:18.671Z,95790.09
2022-12-03T18:05:55.151Z,95787.44
2022-12-03T18:08:28.052Z,95781.81
2022-12-03T18:11:00.860Z,95784.16
2022-12-03T18:13:33.724Z,95791.34
2022-12-03T18:16:07.138Z,95795.25
2022-12-03T18:18:41.479Z,95785.75
2022-12-03T18:21:14.781Z,95786.53
2022-12-03T18:23:47.830Z,95791.84
2022-12-03T18:26:20.738Z,95788.38
2022-12-03T18:28:53.642Z,95801.03
2022-12-03T18:31:26.570Z,95801.03
2022-12-03T18:34:00.830Z,95796.50
2022-12-03T18:36:36.780Z,95790.41
2022-12-03T18:39:19.918Z,95781.03
2022-12-03T18:41:53.259Z,95781.66
2022-12-03T18:44:26.102Z,95785.41
2022-12-03T18:46:59.484Z,95792.91
2022-12-03T18:49:33.707Z,95787.91
2022-12-03T18:52:06.532Z,95791.19
2022-12-03T18:54:39.421Z,95793.38
2022-12-03T18:57:12.371Z,95784.97
2022-12-03T18:59:45.342Z,95778.41
2022-12-03T19:05:15.619Z,95770.91
2022-12-03T19:07:51.086Z,95775.28
2022-12-03T19:10:24.092Z,95775.13
2022-12-03T19:12:57.193Z,95774.19
2022-12-03T19:15:30.018Z,95782.75
2022-12-03T19:18:03.155Z,95775.44
2022-12-03T19:20:41.243Z,95786.38
2022-12-03T19:23:14.045Z,95782.31
2022-12-03T19:25:57.512Z,95784.63
2022-12-03T19:28:31.085Z,95785.09
2022-12-03T19:31:06.077Z,95783.53
2022-12-03T19:33:39.350Z,95786.97
2022-12-03T19:36:21.954Z,95786.97
2022-12-03T19:38:57.297Z,95774.34
2022-12-03T19:41:31.572Z,95786.06
2022-12-03T19:44:09.369Z,95773.88
2022-12-03T19:46:44.783Z,95773.09
2022-12-03T19:49:20.962Z,95768.09
2022-12-03T19:51:55.378Z,95765.75
2022-12-03T19:54:28.196Z,95769.47
2022-12-03T19:57:01.092Z,95775.91
2022-12-03T19:59:33.918Z,95773.56
2022-12-03T20:02:07.264Z,95780.44
2022-12-03T20:04:40.216Z,95763.72
2022-12-03T20:07:14.407Z,95764.50
2022-12-03T20:09:47.176Z,95769.34
2022-12-03T20:12:20.054Z,95757.78
2022-12-03T20:14:52.851Z,95766.53
2022-12-03T20:17:25.651Z,95781.84
2022-12-03T20:19:58.414Z,95773.25
2022-12-03T20:22:32.732Z,95769.50
2022-12-03T20:25:06.492Z,95765.75
2022-12-03T20:27:39.289Z,95757.16
2022-12-03T20:30:12.741Z,95762.47
2022-12-03T20:32:45.815Z,95755.00
2022-12-03T20:35:18.955Z,95761.38
2022-12-03T20:37:53.320Z,95775.91
2022-12-03T20:40:26.071Z,95769.81
2022-12-03T20:42:58.922Z,95772.47
2022-12-03T20:45:31.743Z,95781.97
2022-12-03T20:48:04.977Z,95771.69
2022-12-03T20:50:39.008Z,95766.38
2022-12-03T20:53:27.937Z,95768.72
2022-12-03T20:56:02.582Z,95772.16
2022-12-03T20:58:36.546Z,95755.44
2022-12-03T21:01:15.423Z,95747.81
2022-12-03T21:03:50.526Z,95754.69
2022-12-03T21:06:24.715Z,95761.09
2022-12-03T21:09:00.674Z,95747.81
2022-12-03T21:11:35.847Z,95749.69
2022-12-03T21:14:09.808Z,95752.03
2022-12-03T21:17:07.050Z,95753.44
2022-12-03T21:19:39.451Z,95735.16
2022-12-03T21:22:12.403Z,95726.09
2022-12-03T21:24:46.793Z,95740.94
2022-12-03T21:27:21.868Z,95749.38
2022-12-03T21:29:55.365Z,95748.59
2022-12-03T21:32:28.354Z,95748.41
2022-12-03T21:35:01.219Z,95759.81
2022-12-03T21:37:34.062Z,95746.38
2022-12-03T21:40:09.501Z,95747.94
2022-12-03T21:42:42.421Z,95763.41
2022-12-03T21:45:16.182Z,95761.84
2022-12-03T21:47:49.206Z,95774.78
2022-12-03T21:50:22.228Z,95756.69
2022-12-03T21:52:55.690Z,95748.72
2022-12-03T21:55:30.489Z,95745.47
2022-12-03T21:58:03.298Z,95742.03
2022-12-03T22:00:36.242Z,95763.72
2022-12-03T22:03:09.025Z,95743.28
2022-12-03T22:05:42.068Z,95742.16
2022-12-03T22:08:14.930Z,95736.09
2022-12-03T22:10:49.355Z,95741.53
2022-12-03T22:13:22.182Z,95741.06
2022-12-03T22:15:55.176Z,95730.47
2022-12-03T22:18:28.034Z,95742.63
2022-12-03T22:21:04.464Z,95743.91
2022-12-03T22:23:37.256Z,95738.91
2022-12-03T22:26:14.228Z,95742.03
2022-12-03T22:28:49.389Z,95731.09
2022-12-03T22:31:22.287Z,95736.72
2022-12-03T22:33:55.113Z,95732.97
2022-12-03T22:36:27.929Z,95745.16
2022-12-03T22:39:00.725Z,95732.31
2022-12-03T22:41:35.004Z,95733.88
2022-12-03T22:44:07.802Z,95740.28
2022-12-03T22:46:40.824Z,95738.41
2022-12-03T22:49:14.549Z,95729.66
2022-12-03T22:51:48.258Z,95718.25
2022-12-03T22:54:23.921Z,95727.47
2022-12-03T22:56:58.593Z,95722.19
2022-12-03T22:59:31.552Z,95720.59
2022-12-03T23:02:04.548Z,95726.41
2022-12-03T23:04:37.276Z,95730.13
2022-12-03T23:07:10.506Z,95726.69
2022-12-03T23:09:43.291Z,95737.31
2022-12-03T23:12:17.438Z,95733.44
2022-12-03T23:14:54.232Z,95730.31
2022-12-03T23:17:27.057Z,95719.22
2022-12-03T23:19:59.820Z,95719.84
2022-12-03T23:22:32.649Z,95723.59
2022-12-03T23:25:07.314Z,95727.66
2022-12-03T23:27:41.531Z,95727.97
2022-12-03T23:30:16.103Z,95720.63
2022-12-03T23:32:48.878Z,95714.88
2022-12-03T23:35:21.678Z,95723.75
2022-12-03T23:37:54.503Z,95716.88
2022-12-03T23:40:27.263Z,95708.44
2022-12-03T23:43:01.585Z,95710.00
2022-12-03T23:45:35.345Z,95719.84
2022-12-03T23:48:08.159Z,95712.97
2022-12-03T23:50:41.576Z,95704.25
2022-12-03T23:53:14.753Z,95703.47
2022-12-03T23:55:47.492Z,95707.66
2022-12-03T23:58:21.661Z,95703.91
